Fort Worth Meacham International Airport
KFTW : now visible

Airfield :











YOU CAN JOIN US ON...

 
LOGIN :

Register | Disclaimer

   EN    FR    IT 

 









Legend :    VFR   Marginal VFR   IFR   Intensive IFR   Very Intensive IFR
Visi :
Ceiling :
>= 8 km
>= 3000ft
5 to 8 km
1000 to 3000 ft
1500m to 5 km
500 to 1000 ft
800 to 1500m
200 to 500 ft
< 800m
< 200 ft
Symbols :   Thunderstorms  Fog  Heavy snow  Heavy precipitations  Wind > 20 kt






- Airport Elevation : 710 ft
- IATA code : FTW


KFTW - Fort Worth Meacham International

CURRENT METAR :
  • 242153Z 07006KT 1SM R16/P6000FT BR OVC003 13/13 A2982 RMK AO2 RAE29 SLP094 P0003 T01330133

EXPIRED METARs :
  • 242053Z 07004KT 1SM R16/4500VP6000FT -RA BR OVC002 14/14 A2982 RMK AO2 LTG DSNT E RAB04E11B33 CIG 001V006 SLP095 P0004 60004 T01390139 56041
  • 241953Z 07006KT 1SM R16/P6000FT BR OVC002 13/13 A2983 RMK AO2 LTG DSNT SE AND S SLP098 T01330133
  • 241947Z 07005KT 2SM BR OVC002 13/13 A2983 RMK AO2 LTG DSNT SE AND S

TAF KFTW
Valid from the 24 at 21:00 until the 25 at 18:00 UTC


242102Z 2421/2518 10005KT 1SM BR VCTS OVC002CB
FM250200 11006KT 2SM BR VCSH OVC005
FM250700 17011KT 4SM BR VCTS BKN007CB
TEMPO 2508/2511 20020KT 4SM +TSRA BKN025CB
FM251100 26015KT P6SM SCT025
FM251700 26015G25KT P6SM SKC
KZFW FIR / North America



MET'MAP, your aeronautical weather chart ! - Copyright ORBIFLY December 2007 - Disclaimer

ORBIFLY MET'MAP TEAM :

Programming & Development : Alexandra Zaïnal
Concept & original design : Baudouin d'Aumeries
Assistance for programming : Marc-Olivier Méhu
Technical & hardware support : Manuel Goepfert

Contact : metmap@orbifly.com




SOURCES & CREDITS :

   NOAA       Earth
Advisory